Latest Weather Observations for Combienbar

IDV60801

Issued at 10:02 am EST Monday 26 September 2016 (issued every 30 minutes, with the page automatically refreshed every 10 minutes)

About weather observations | Map of weather stations | Latest weather observations for VIC | Other Formats
Station Details ID: 084143 Name: COMBIENBAR AWS Lat: -37.34 Lon: 149.02 Height: 640.0 m
Data from the previous 72 hours. | See also: Recent months at Combienbar
Date/Time
EST
Temp
°C
App
Temp
°C
Dew
Point
°C
Rel
Hum
%
Delta-T
°C
Wind Press
QNH
hPa
Press
MSL
hPa
Rain since
9am
mm
Dir  Spd
km/h
Gust
km/h
Spd
kts
Gust
kts
26/10:00am 9.6 8.2 3.6 66 2.7 CALM 0 2 0 1 1012.5 1012.1 0.0
26/09:30am 8.4 6.5 3.1 69 2.3 SSW 2 6 1 3 1013.0 1012.5 0.0
26/09:00am 8.3 6.1 1.2 61 3.0 SW 2 6 1 3 1013.0 1012.5 2.0
26/08:30am 6.6 3.6 0.9 67 2.4 SW 6 13 3 7 1013.1 1012.6 2.0
26/08:00am 6.5 3.7 2.0 73 1.9 SW 6 13 3 7 1013.0 1012.5 2.0
26/07:30am 6.1 3.1 0.9 69 2.1 SW 6 13 3 7 1012.9 1012.4 2.0
26/07:00am 5.2 1.9 0.4 71 1.9 SW 7 11 4 6 1013.0 1012.5 2.0
26/06:30am 4.8 1.7 0.2 72 1.8 SW 6 9 3 5 1012.6 1012.2 2.0
26/06:00am 4.8 1.5 0.2 72 1.8 SW 7 11 4 6 1012.5 1012.1 2.0
26/05:30am 4.5 1.5 0.5 75 1.6 SW 6 9 3 5 1012.5 1012.1 2.0
26/05:00am 4.6 1.5 0.2 73 1.8 SW 6 9 3 5 1012.2 1011.8 2.0
26/04:30am 4.6 1.5 0.2 73 1.7 SW 6 13 3 7 1012.4 1012.0 2.0
26/04:00am 4.3 1.3 0.8 78 1.4 SW 6 13 3 7 1012.2 1011.8 2.0
26/03:30am 4.2 1.2 1.1 80 1.3 SW 6 13 3 7 1012.1 1011.7 2.0
26/03:00am 4.2 1.0 0.5 77 1.5 SW 7 13 4 7 1012.0 1011.6 2.0
26/02:30am 4.4 0.7 0.2 74 1.7 SW 9 17 5 9 1012.1 1011.7 2.0
26/02:00am 4.4 1.1 0.4 75 1.6 SW 7 13 4 7 1012.4 1012.0 2.0
26/01:30am 4.3 1.1 0.6 77 1.5 SW 7 13 4 7 1012.7 1012.3 2.0
26/01:00am 4.2 1.1 1.4 82 1.1 SW 7 17 4 9 1013.0 1012.5 2.0
26/12:30am 4.7 1.8 1.7 81 1.2 SW 6 11 3 6 1012.9 1012.4 2.0
26/12:00am 4.8 1.8 2.0 82 1.2 SW 7 13 4 7 1012.9 1012.4 2.0
 
Date/Time
EST
Temp
°C
App
Temp
°C
Dew
Point
°C
Rel
Hum
%
Delta-T
°C
Wind Press
QNH
hPa
Press
MSL
hPa
Rain since
9am
mm
Dir  Spd
km/h
Gust
km/h
Spd
kts
Gust
kts
25/11:30pm 5.0 2.3 2.9 86 0.9 SW 6 9 3 5 1012.9 1012.4 2.0
25/11:00pm 5.5 3.0 3.8 89 0.7 SW 6 17 3 9 1012.5 1012.1 2.0
25/10:30pm 5.6 3.2 4.4 92 0.5 SW 6 13 3 7 1012.5 1012.1 2.0
25/10:00pm 5.6 3.7 4.9 95 0.3 SW 4 7 2 4 1012.5 1012.1 2.0
25/09:30pm 5.6 3.4 5.2 97 0.2 SW 6 9 3 5 1012.3 1011.9 1.8
25/09:00pm 5.7 3.9 5.4 98 0.1 SW 4 9 2 5 1012.3 1011.9 1.8
25/08:30pm 5.8 4.4 5.4 97 0.2 SW 2 6 1 3 1012.0 1011.6 1.8
25/08:00pm 5.8 4.8 5.5 98 0.1 CALM 0 2 0 1 1011.8 1011.3 1.6
25/07:30pm 5.9 4.9 5.6 98 0.1 CALM 0 2 0 1 1011.6 1011.1 1.6
25/07:00pm 6.0 5.0 5.7 98 0.1 CALM 0 2 0 1 1011.2 1010.7 1.6
25/06:30pm 6.0 5.0 5.6 97 0.2 CALM 0 2 0 1 1010.8 1010.4 1.4
25/06:00pm 6.0 5.0 5.6 97 0.2 CALM 0 2 0 1 1010.6 1010.2 1.4
25/05:30pm 5.9 4.5 5.5 97 0.2 SW 2 26 1 14 1010.4 1009.9 1.4
25/05:00pm 6.2 4.1 5.9 98 0.1 SW 6 9 3 5 1010.2 1009.7 1.4
25/04:30pm 6.5 4.9 6.2 98 0.1 SW 4 13 2 7 1009.9 1009.4 1.4
25/04:00pm 6.6 4.6 6.3 98 0.1 SSW 6 11 3 6 1009.4 1009.0 1.4
25/03:30pm 7.2 5.7 6.9 98 0.1 SW 4 7 2 4 1009.3 1008.9 1.0
25/03:00pm 7.3 5.5 7.0 98 0.1 SW 6 9 3 5 1009.1 1008.6 1.0
25/02:30pm 7.5 6.1 7.2 98 0.1 SSW 4 7 2 4 1009.0 1008.5 1.0
25/02:00pm 7.7 6.3 7.4 98 0.1 SW 4 7 2 4 1008.9 1008.4 1.0
25/01:30pm 7.6 5.8 7.2 97 0.2 SSW 6 9 3 5 1008.8 1008.3 0.8
25/01:00pm 7.6 6.2 7.2 97 0.2 SSW 4 7 2 4 1008.8 1008.3 0.8
25/12:30pm 7.6 7.0 7.2 97 0.2 CALM 0 4 0 2 1008.8 1008.3 0.4
25/12:00pm 7.4 6.7 7.0 97 0.2 CALM 0 4 0 2 1008.8 1008.3 0.0
25/11:30am 7.7 6.7 7.3 97 0.2 SW 2 9 1 5 1008.8 1008.3 0.0
25/11:00am 7.3 5.2 6.7 96 0.3 SW 7 13 4 7 1008.5 1008.0 0.0
25/10:30am 8.6 7.3 7.5 93 0.5 SW 4 7 2 4 1008.3 1007.8 0.0
25/10:00am 9.2 7.9 7.8 91 0.7 SW 4 6 2 3 1008.2 1007.7 0.0
25/09:30am 9.7 8.9 8.3 91 0.7 SSW 2 6 1 3 1008.1 1007.6 0.0
25/09:00am 9.9 9.4 7.8 87 1.0 CALM 0 2 0 1 1007.7 1007.2 0.2
25/08:30am 10.8 10.5 8.6 86 1.1 CALM 0 0 0 0 1007.4 1006.9 0.2
25/08:00am 10.5 9.7 6.6 77 1.9 CALM 0 2 0 1 1007.0 1006.5 0.2
25/07:30am 10.8 8.9 5.1 68 2.7 SW 4 7 2 4 1006.5 1006.0 0.2
25/07:00am 9.6 8.1 5.0 73 2.2 SW 2 4 1 2 1006.2 1005.6 0.2
25/06:30am 8.6 7.5 5.0 78 1.7 CALM 0 2 0 1 1005.8 1005.3 0.2
25/06:00am 8.9 7.7 4.7 75 1.9 CALM 0 2 0 1 1005.7 1005.2 0.2
25/05:30am 9.2 8.0 4.6 73 2.1 CALM 0 2 0 1 1005.6 1005.1 0.2
25/05:00am 9.6 8.4 4.8 72 2.2 CALM 0 4 0 2 1005.5 1005.0 0.2
25/04:30am 9.4 8.4 5.8 78 1.7 CALM 0 4 0 2 1005.4 1004.9 0.2
25/04:00am 9.2 8.4 6.3 82 1.4 CALM 0 4 0 2 1005.6 1005.1 0.2
25/03:30am 9.1 8.5 7.4 89 0.8 CALM 0 4 0 2 1005.8 1005.3 0.2
25/03:00am 9.0 8.5 7.9 93 0.5 CALM 0 0 0 0 1005.9 1005.4 0.2
25/02:30am 9.2 8.8 8.1 93 0.5 CALM 0 6 0 3 1005.9 1005.4 0.2
25/02:00am 9.4 9.0 8.3 93 0.6 CALM 0 2 0 1 1006.5 1006.0 0.0
25/01:30am 10.1 9.6 8.0 87 1.1 CALM 0 4 0 2 1006.9 1006.4 0.0
25/01:00am 11.3 10.7 7.2 76 2.0 CALM 0 0 0 0 1007.1 1006.6 0.0
25/12:30am 12.4 9.9 6.5 67 2.9 W 9 22 5 12 1007.0 1006.5 0.0
25/12:00am 12.9 10.8 6.0 63 3.4 WNW 6 9 3 5 1007.0 1006.5 0.0
 
Date/Time
EST
Temp
°C
App
Temp
°C
Dew
Point
°C
Rel
Hum
%
Delta-T
°C
Wind Press
QNH
hPa
Press
MSL
hPa
Rain since
9am
mm
Dir  Spd
km/h
Gust
km/h
Spd
kts
Gust
kts
24/11:30pm 13.2 11.0 5.1 58 3.9 NNW 6 11 3 6 1007.1 1006.6 0.0
24/11:00pm 12.8 11.6 4.5 57 3.9 CALM 0 7 0 4 1007.3 1006.8 0.0
24/10:30pm 13.1 11.1 4.3 55 4.2 NW 4 6 2 3 1007.2 1006.7 0.0
24/10:00pm 12.2 11.6 7.5 73 2.4 CALM 0 0 0 0 1007.0 1006.5 0.0
24/09:30pm 12.2 12.6 11.3 94 0.5 CALM 0 0 0 0 1007.2 1006.7 0.0
24/09:00pm 12.2 12.7 11.6 96 0.3 CALM 0 0 0 0 1007.5 1007.0 0.0
24/08:30pm 12.1 12.5 11.3 95 0.4 CALM 0 0 0 0 1007.9 1007.4 0.0
24/08:00pm 12.4 12.9 11.6 95 0.4 CALM 0 0 0 0 1008.1 1007.6 0.0
24/07:30pm 12.3 12.7 11.2 93 0.6 CALM 0 0 0 0 1008.1 1007.6 0.0
24/07:00pm 12.8 13.3 11.7 93 0.6 CALM 0 0 0 0 1007.7 1007.2 0.0
24/06:30pm 13.1 13.6 11.7 91 0.8 CALM 0 0 0 0 1007.4 1006.9 0.0
24/06:00pm 13.6 14.2 11.8 89 1.0 CALM 0 0 0 0 1007.2 1006.7 0.0
24/05:30pm 14.2 14.7 11.7 85 1.4 CALM 0 2 0 1 1007.2 1006.7 0.0
24/05:00pm 15.2 15.6 11.2 77 2.2 CALM 0 0 0 0 1007.2 1006.7 0.0
24/04:30pm 15.2 15.5 11.0 76 2.3 CALM 0 0 0 0 1007.1 1006.6 0.0
24/04:00pm 15.8 16.2 11.2 74 2.6 CALM 0 2 0 1 1006.7 1006.2 0.0
24/03:30pm 16.7 16.8 10.3 66 3.5 CALM 0 0 0 0 1006.5 1006.0 0.0
24/03:00pm 17.6 16.9 8.7 56 4.8 NNE 2 4 1 2 1006.5 1006.0 0.0
24/02:30pm 18.4 17.9 9.2 55 5.0 NNE 2 6 1 3 1006.8 1006.3 0.0
24/02:00pm 20.0 19.0 8.7 48 6.1 NNW 4 11 2 6 1007.4 1006.9 0.0
24/01:30pm 20.1 18.5 7.8 45 6.5 N 6 19 3 10 1008.0 1007.5 0.0
24/01:00pm 18.7 18.5 9.2 54 5.2 CALM 0 2 0 1 1008.5 1008.0 0.0
24/12:30pm 19.1 18.4 10.1 56 5.0 NNE 4 6 2 3 1008.8 1008.3 0.0
24/12:00pm 20.2 19.7 10.9 55 5.3 NNE 4 6 2 3 1009.1 1008.6 0.0
24/11:30am 19.8 19.4 11.0 57 5.0 NNE 4 9 2 5 1009.6 1009.1 0.0
24/11:00am 19.1 18.4 9.9 55 5.1 NNE 4 6 2 3 1010.1 1009.6 0.0
24/10:30am 17.1 17.0 10.7 66 3.5 W 2 4 1 2 1010.6 1010.2 0.0
24/10:00am 17.2 17.3 10.1 63 3.9 CALM 0 0 0 0 1011.0 1010.6 0.0
24/09:30am 17.2 17.5 10.8 66 3.5 CALM 0 2 0 1 1011.3 1010.8 0.0
24/09:00am 15.9 15.2 10.2 69 3.1 NE 4 6 2 3 1011.6 1011.1 1.4
24/08:30am 15.4 15.4 9.7 69 3.1 CALM 0 2 0 1 1011.7 1011.2 1.4
24/08:00am 14.1 13.7 8.3 68 3.0 CALM 0 0 0 0 1011.9 1011.5 1.4
24/07:30am 12.8 12.6 8.9 77 2.0 CALM 0 0 0 0 1012.0 1011.6 1.4
24/07:00am 10.9 9.9 5.7 70 2.5 CALM 0 0 0 0 1012.0 1011.6 1.4
24/06:30am 11.1 10.0 5.0 66 2.9 CALM 0 0 0 0 1011.8 1011.3 1.4
24/06:00am 10.4 9.2 4.8 68 2.6 CALM 0 0 0 0 1011.6 1011.1 1.4
24/05:30am 10.5 9.3 4.6 67 2.8 CALM 0 4 0 2 1011.7 1011.2 1.4
24/05:00am 10.6 9.0 4.7 67 2.8 NNW 2 4 1 2 1011.7 1011.2 1.4
24/04:30am 9.6 8.5 5.0 73 2.1 CALM 0 0 0 0 1011.8 1011.3 1.4
24/04:00am 9.4 8.4 5.4 76 1.9 CALM 0 0 0 0 1011.8 1011.3 1.4
24/03:30am 8.8 7.7 5.2 78 1.7 CALM 0 0 0 0 1011.9 1011.5 1.4
24/03:00am 8.7 7.6 4.9 77 1.8 CALM 0 0 0 0 1012.0 1011.6 1.4
24/02:30am 8.5 7.5 5.4 81 1.4 CALM 0 4 0 2 1012.2 1011.8 1.4
24/02:00am 8.6 7.6 5.4 80 1.5 CALM 0 4 0 2 1012.6 1012.2 1.4
24/01:30am 8.0 7.0 5.8 86 1.0 CALM 0 0 0 0 1012.9 1012.4 1.4
24/01:00am 7.8 6.6 6.4 91 0.7 NNE 2 4 1 2 1013.0 1012.5 1.4
24/12:30am 7.6 6.0 6.4 92 0.6 NNE 4 6 2 3 1013.0 1012.5 1.4
24/12:00am 7.4 6.6 6.3 93 0.5 CALM 0 0 0 0 1013.2 1012.7 1.4
 
Date/Time
EST
Temp
°C
App
Temp
°C
Dew
Point
°C
Rel
Hum
%
Delta-T
°C
Wind Press
QNH
hPa
Press
MSL
hPa
Rain since
9am
mm
Dir  Spd
km/h
Gust
km/h
Spd
kts
Gust
kts
23/11:30pm 7.7 7.0 7.0 95 0.3 CALM 0 2 0 1 1013.5 1013.1 1.4
23/11:00pm 7.7 7.0 7.1 96 0.3 CALM 0 0 0 0 1013.7 1013.3 1.4
23/10:30pm 7.7 7.1 7.3 97 0.2 CALM 0 0 0 0 1013.8 1013.4 1.4
23/10:00pm 7.9 7.3 7.6 98 0.1 CALM 0 0 0 0 1013.9 1013.5 1.4
23/09:30pm 7.8 7.2 7.5 98 0.1 CALM 0 0 0 0 1014.1 1013.7 1.4
23/09:00pm 7.8 7.2 7.5 98 0.1 CALM 0 0 0 0 1014.3 1013.9 1.4
23/08:30pm 7.9 7.3 7.6 98 0.1 CALM 0 0 0 0 1014.6 1014.2 1.4
23/08:00pm 8.0 7.5 7.7 98 0.1 CALM 0 0 0 0 1014.7 1014.3 1.4
23/07:30pm 8.3 7.8 8.0 98 0.1 CALM 0 0 0 0 1014.8 1014.4 1.4
23/07:00pm 8.7 8.3 8.4 98 0.2 CALM 0 0 0 0 1014.7 1014.3 1.4
23/06:30pm 8.9 8.6 8.6 98 0.2 CALM 0 0 0 0 1014.7 1014.3 1.4
23/06:00pm 9.0 8.7 8.7 98 0.2 CALM 0 0 0 0 1014.6 1014.2 1.4
23/05:30pm 9.2 9.0 8.9 98 0.2 CALM 0 0 0 0 1014.7 1014.3 1.4
23/05:00pm 9.2 9.0 8.9 98 0.2 CALM 0 0 0 0 1014.6 1014.2 1.4
23/04:30pm 9.3 9.1 9.0 98 0.2 CALM 0 0 0 0 1014.6 1014.2 1.4
23/04:00pm 9.1 8.8 8.8 98 0.2 CALM 0 0 0 0 1014.4 1014.0 1.4
23/03:30pm 9.3 9.1 9.0 98 0.2 CALM 0 0 0 0 1014.4 1014.0 1.4
23/03:00pm 9.2 9.0 8.9 98 0.2 CALM 0 0 0 0 1014.7 1014.3 1.4
23/02:30pm 9.2 9.0 8.9 98 0.2 CALM 0 0 0 0 1014.9 1014.5 1.2
23/02:00pm 9.2 9.0 8.9 98 0.2 CALM 0 4 0 2 1015.0 1014.6 1.2
23/01:30pm 9.3 9.1 9.0 98 0.2 CALM 0 2 0 1 1015.2 1014.8 1.0
23/01:00pm 9.2 9.0 8.9 98 0.2 CALM 0 2 0 1 1015.4 1015.0 0.6
23/12:30pm 9.0 8.7 8.7 98 0.2 CALM 0 4 0 2 1015.6 1015.2 0.2
23/12:00pm 9.0 8.3 8.7 98 0.2 SW 2 7 1 4 1015.7 1015.3 0.2
23/11:30am 9.1 8.5 8.8 98 0.2 SW 2 9 1 5 1015.8 1015.4 0.2
23/11:00am 9.1 8.8 8.8 98 0.2 CALM 0 2 0 1 1015.9 1015.6 0.2
23/10:30am 9.1 8.5 9.0 99 0.1 SW 2 4 1 2 1016.3 1015.9 0.0

Other Formats:

Comma delimited format used in spreadsheet applications
http://www.bom.gov.au/fwo/IDV60801/IDV60801.94914.axf

JavaScript Object Notation format (JSON) in row-major order
http://www.bom.gov.au/fwo/IDV60801/IDV60801.94914.json